createdAt,value
2022-12-07T00:01:46.902Z,97.51
2022-12-07T00:04:18.164Z,97.45
2022-12-07T00:06:51.361Z,97.48
2022-12-07T00:09:20.463Z,97.47
2022-12-07T00:11:52.058Z,97.44
2022-12-07T00:14:21.004Z,97.51
2022-12-07T00:16:52.319Z,97.54
2022-12-07T00:19:20.362Z,97.55
2022-12-07T00:21:48.074Z,97.52
2022-12-07T00:24:16.105Z,97.53
2022-12-07T00:26:45.988Z,97.59
2022-12-07T00:29:21.462Z,97.60
2022-12-07T00:31:49.444Z,97.57
2022-12-07T00:34:20.942Z,97.57
2022-12-07T00:36:50.698Z,97.60
2022-12-07T00:39:18.682Z,97.57
2022-12-07T00:41:46.621Z,97.54
2022-12-07T00:44:14.486Z,97.50
2022-12-07T00:46:42.395Z,97.55
2022-12-07T00:49:10.029Z,97.51
2022-12-07T00:51:38.079Z,97.53
2022-12-07T00:54:05.872Z,97.52
2022-12-07T00:56:33.551Z,97.51
2022-12-07T00:59:04.448Z,97.55
2022-12-07T01:01:37.153Z,97.54
2022-12-07T01:04:05.157Z,97.58
2022-12-07T01:06:33.171Z,97.61
2022-12-07T01:09:02.071Z,97.58
2022-12-07T01:11:31.096Z,97.63
2022-12-07T01:14:01.775Z,97.61
2022-12-07T01:16:31.898Z,97.61
2022-12-07T01:19:01.457Z,97.63
2022-12-07T01:21:36.172Z,97.67
2022-12-07T01:24:08.509Z,97.68
2022-12-07T01:26:36.313Z,97.66
2022-12-07T01:29:04.152Z,97.70
2022-12-07T01:31:32.212Z,97.70
2022-12-07T01:34:01.850Z,97.72
2022-12-07T01:36:36.600Z,97.72
2022-12-07T01:39:08.240Z,97.74
2022-12-07T01:41:41.691Z,97.74
2022-12-07T01:44:11.003Z,97.76
2022-12-07T01:46:41.138Z,97.74
2022-12-07T01:49:15.743Z,97.74
2022-12-07T01:51:46.775Z,97.74
2022-12-07T01:54:17.188Z,97.73
2022-12-07T01:56:53.051Z,97.78
2022-12-07T01:59:23.976Z,97.73
2022-12-07T02:01:53.980Z,97.72
2022-12-07T02:04:25.519Z,97.73
2022-12-07T02:06:55.019Z,97.76
2022-12-07T02:09:22.698Z,97.80
2022-12-07T02:11:51.520Z,97.81
2022-12-07T02:14:19.367Z,97.85
2022-12-07T02:17:24.417Z,97.83
2022-12-07T02:20:07.556Z,97.86
2022-12-07T02:22:59.582Z,97.86
2022-12-07T02:25:38.987Z,97.93
2022-12-07T02:28:31.423Z,97.91
2022-12-07T02:31:10.240Z,97.87
2022-12-07T02:34:02.050Z,97.89
2022-12-07T02:36:35.761Z,97.92
2022-12-07T02:39:18.296Z,97.92
2022-12-07T02:41:56.880Z,97.95
2022-12-07T02:44:27.792Z,97.93
2022-12-07T02:47:04.517Z,97.94
2022-12-07T02:49:33.774Z,97.94
2022-12-07T02:52:01.457Z,97.93
2022-12-07T02:54:29.438Z,97.91
2022-12-07T02:57:12.686Z,97.96
2022-12-07T03:00:15.317Z,97.91
2022-12-07T03:03:00.396Z,97.93
2022-12-07T03:06:11.912Z,97.88
2022-12-07T03:09:13.240Z,97.88
2022-12-07T03:11:54.141Z,97.92
2022-12-07T03:14:34.901Z,97.91
2022-12-07T03:17:17.829Z,97.87
2022-12-07T03:19:47.866Z,97.87
2022-12-07T03:22:16.104Z,97.90
2022-12-07T03:24:51.337Z,97.92
2022-12-07T03:27:30.925Z,97.90
2022-12-07T03:30:18.465Z,97.87
2022-12-07T03:32:57.591Z,97.80
2022-12-07T03:35:36.216Z,97.74
2022-12-07T03:38:46.379Z,97.77
2022-12-07T03:41:30.928Z,97.76
2022-12-07T03:43:59.898Z,97.72
2022-12-07T03:46:38.106Z,97.70
2022-12-07T03:49:15.571Z,97.72
2022-12-07T03:52:08.769Z,97.68
2022-12-07T03:54:53.161Z,97.73
2022-12-07T03:57:22.369Z,97.74
2022-12-07T03:59:50.205Z,97.65
2022-12-07T04:02:18.654Z,97.68
2022-12-07T04:04:46.568Z,97.65
2022-12-07T04:07:14.313Z,97.65
2022-12-07T04:09:41.942Z,97.65
2022-12-07T04:12:09.922Z,97.65
2022-12-07T04:14:37.694Z,97.70
2022-12-07T04:17:05.698Z,97.54
2022-12-07T04:19:35.198Z,97.49
2022-12-07T04:22:05.595Z,97.49
2022-12-07T04:24:34.899Z,97.43
2022-12-07T04:27:02.605Z,97.53
2022-12-07T04:29:30.433Z,97.56
2022-12-07T04:31:58.270Z,97.56
2022-12-07T04:34:26.074Z,97.57
2022-12-07T04:36:53.727Z,97.54
2022-12-07T04:39:25.957Z,97.57
2022-12-07T04:41:54.326Z,97.54
2022-12-07T04:44:23.665Z,97.53
2022-12-07T04:46:52.749Z,97.53
2022-12-07T04:49:21.386Z,97.57
2022-12-07T04:52:07.652Z,97.57
2022-12-07T04:54:35.753Z,97.55
2022-12-07T04:57:03.341Z,97.58
2022-12-07T04:59:31.234Z,97.58
2022-12-07T05:01:58.855Z,97.65
2022-12-07T05:04:26.715Z,97.60
2022-12-07T05:06:54.459Z,97.61
2022-12-07T05:09:22.351Z,97.59
2022-12-07T05:11:50.121Z,97.52
2022-12-07T05:14:21.607Z,97.44
2022-12-07T05:16:52.161Z,97.32
2022-12-07T05:19:20.460Z,97.30
2022-12-07T05:21:48.272Z,97.25
2022-12-07T05:24:17.581Z,97.24
2022-12-07T05:26:46.077Z,97.15
2022-12-07T05:29:18.093Z,97.26
2022-12-07T05:31:47.165Z,97.29
2022-12-07T05:34:15.038Z,97.18
2022-12-07T05:36:42.860Z,97.18
2022-12-07T05:39:11.579Z,97.15
2022-12-07T05:41:58.210Z,97.23
2022-12-07T05:44:26.279Z,97.15
2022-12-07T05:46:53.886Z,97.15
2022-12-07T05:49:21.800Z,97.11
2022-12-07T05:51:50.900Z,97.20
2022-12-07T05:54:18.471Z,97.15
2022-12-07T05:56:46.029Z,97.22
2022-12-07T05:59:27.068Z,97.17
2022-12-07T06:01:57.912Z,97.28
2022-12-07T06:04:29.679Z,97.37
2022-12-07T06:06:57.708Z,97.37
2022-12-07T06:09:27.796Z,97.49
2022-12-07T06:12:16.354Z,97.51
2022-12-07T06:15:03.168Z,97.56
2022-12-07T06:17:30.937Z,97.56
2022-12-07T06:19:58.578Z,97.59
2022-12-07T06:22:26.537Z,97.60
2022-12-07T06:24:54.213Z,97.51
2022-12-07T06:27:22.006Z,97.51
2022-12-07T06:29:49.802Z,97.54
2022-12-07T06:32:17.741Z,97.55
2022-12-07T06:34:57.736Z,97.63
2022-12-07T06:37:25.387Z,97.62
2022-12-07T06:39:53.007Z,97.54
2022-12-07T06:42:21.054Z,97.46
2022-12-07T06:44:48.729Z,97.52
2022-12-07T06:47:40.644Z,97.53
2022-12-07T06:50:05.542Z,97.60
2022-12-07T06:52:33.467Z,97.62
2022-12-07T06:55:01.182Z,97.52
2022-12-07T06:57:28.778Z,97.56
2022-12-07T06:59:56.678Z,97.59
2022-12-07T07:04:16.279Z,97.62
2022-12-07T07:06:44.468Z,97.54
2022-12-07T07:09:12.121Z,97.48
2022-12-07T07:11:40.169Z,97.52
2022-12-07T07:14:07.757Z,97.49
2022-12-07T07:16:35.594Z,97.53
2022-12-07T07:19:03.618Z,97.50
2022-12-07T07:21:31.334Z,97.44
2022-12-07T07:23:58.938Z,97.38
2022-12-07T07:26:27.187Z,97.46
2022-12-07T07:28:54.894Z,97.57
2022-12-07T07:31:22.858Z,97.51
2022-12-07T07:33:50.663Z,97.55
2022-12-07T07:36:18.652Z,97.52
2022-12-07T07:38:46.434Z,97.53
2022-12-07T07:41:14.229Z,97.44
2022-12-07T07:43:42.029Z,97.59
2022-12-07T07:46:09.968Z,97.67
2022-12-07T07:48:37.629Z,97.65
2022-12-07T07:51:09.518Z,97.48
2022-12-07T07:53:37.205Z,97.46
2022-12-07T07:56:05.134Z,97.42
2022-12-07T07:58:33.977Z,97.48
2022-12-07T08:01:09.281Z,97.53
2022-12-07T08:03:37.648Z,97.46
2022-12-07T08:06:05.879Z,97.37
2022-12-07T08:08:33.808Z,97.36
2022-12-07T08:11:04.276Z,97.39
2022-12-07T08:13:32.113Z,97.33
2022-12-07T08:16:04.095Z,97.40
2022-12-07T08:18:32.184Z,97.23
2022-12-07T08:21:02.309Z,97.22
2022-12-07T08:23:37.621Z,97.19
2022-12-07T08:26:16.718Z,97.26
2022-12-07T08:28:46.358Z,97.10
2022-12-07T08:31:18.901Z,97.00
2022-12-07T08:33:48.953Z,96.95
2022-12-07T08:36:17.738Z,96.83
2022-12-07T08:39:07.879Z,97.05
2022-12-07T08:41:34.156Z,97.20
2022-12-07T08:44:01.804Z,97.08
2022-12-07T08:46:49.255Z,96.88
2022-12-07T08:49:26.949Z,96.64
2022-12-07T08:51:56.822Z,96.74
2022-12-07T08:54:24.779Z,96.90
2022-12-07T08:56:59.020Z,96.40
2022-12-07T08:59:29.893Z,96.87
2022-12-07T09:01:57.739Z,96.71
2022-12-07T09:04:25.492Z,96.98
2022-12-07T09:06:54.973Z,96.84
2022-12-07T09:09:22.859Z,96.73
2022-12-07T09:11:50.460Z,96.70
2022-12-07T09:14:18.568Z,96.52
2022-12-07T09:16:46.196Z,96.52
2022-12-07T09:19:14.399Z,95.71
2022-12-07T09:21:42.231Z,95.82
2022-12-07T09:24:10.409Z,95.82
2022-12-07T09:26:40.358Z,95.65
2022-12-07T09:29:08.444Z,95.96
2022-12-07T09:31:38.717Z,96.13
2022-12-07T09:34:07.214Z,95.85
2022-12-07T09:36:35.403Z,96.15
2022-12-07T09:39:05.660Z,96.40
2022-12-07T09:41:34.073Z,96.55
2022-12-07T09:44:18.156Z,96.45
2022-12-07T09:46:46.926Z,96.47
2022-12-07T09:49:22.341Z,96.65
2022-12-07T09:52:18.351Z,96.79
2022-12-07T09:54:50.617Z,96.71
2022-12-07T09:57:22.623Z,96.52
2022-12-07T09:59:51.996Z,96.89
2022-12-07T10:02:45.974Z,96.95
2022-12-07T10:05:27.556Z,96.87
2022-12-07T10:07:55.639Z,96.93
2022-12-07T10:10:38.112Z,96.76
2022-12-07T10:13:14.143Z,97.14
2022-12-07T10:15:46.270Z,97.02
2022-12-07T10:18:38.752Z,96.81
2022-12-07T10:21:10.116Z,96.85
2022-12-07T10:24:02.935Z,96.66
2022-12-07T10:26:50.739Z,96.38
2022-12-07T10:29:39.448Z,96.59
2022-12-07T10:32:16.535Z,96.63
2022-12-07T10:34:50.458Z,96.85
2022-12-07T10:37:21.653Z,96.69
2022-12-07T10:39:52.336Z,96.64
2022-12-07T10:42:32.633Z,96.65
2022-12-07T10:45:18.858Z,96.69
2022-12-07T10:48:00.124Z,96.63
2022-12-07T10:50:59.610Z,96.65
2022-12-07T10:53:56.457Z,96.18
2022-12-07T10:56:51.197Z,96.41
2022-12-07T10:59:49.019Z,96.56
2022-12-07T11:02:39.998Z,96.51
2022-12-07T11:05:30.347Z,96.63
2022-12-07T11:08:23.775Z,96.27
2022-12-07T11:11:03.350Z,96.36
2022-12-07T11:13:49.863Z,95.96
2022-12-07T11:16:32.307Z,96.18
2022-12-07T11:19:28.468Z,96.17
2022-12-07T11:22:10.385Z,96.41
2022-12-07T11:25:04.897Z,96.23
2022-12-07T11:27:53.791Z,96.13
2022-12-07T11:30:30.481Z,95.61
2022-12-07T11:33:19.116Z,95.90
2022-12-07T11:36:28.000Z,96.00
2022-12-07T11:39:23.642Z,95.97
2022-12-07T11:42:02.699Z,96.02
2022-12-07T11:45:12.010Z,96.17
2022-12-07T11:48:00.477Z,95.53
2022-12-07T11:50:55.431Z,95.96
2022-12-07T11:53:34.421Z,96.29
2022-12-07T11:56:20.587Z,96.20
2022-12-07T11:59:07.966Z,96.16
2022-12-07T12:02:03.574Z,95.76
2022-12-07T12:04:40.785Z,95.96
2022-12-07T12:10:14.699Z,96.09
2022-12-07T12:16:23.427Z,96.07
2022-12-07T12:19:22.417Z,95.97
2022-12-07T12:21:58.108Z,95.81
2022-12-07T12:24:29.914Z,96.06
2022-12-07T12:27:07.715Z,95.90
2022-12-07T12:29:40.496Z,95.89
2022-12-07T12:32:32.535Z,95.70
2022-12-07T12:35:24.555Z,94.65
2022-12-07T12:37:55.315Z,95.27
2022-12-07T12:40:23.082Z,93.97
2022-12-07T12:42:59.257Z,94.66
2022-12-07T12:45:33.082Z,94.05
2022-12-07T12:48:03.162Z,94.03
2022-12-07T12:50:39.521Z,94.80
2022-12-07T12:53:27.841Z,94.84
2022-12-07T12:56:26.150Z,93.96
2022-12-07T12:59:24.610Z,95.05
2022-12-07T13:02:25.200Z,94.12
2022-12-07T13:05:11.481Z,94.84
2022-12-07T13:07:48.637Z,94.19
2022-12-07T13:10:33.934Z,94.68
2022-12-07T13:13:04.690Z,94.12
2022-12-07T13:15:43.121Z,93.60
2022-12-07T13:18:31.021Z,93.68
2022-12-07T13:21:07.790Z,93.69
2022-12-07T13:23:46.769Z,93.56
2022-12-07T13:26:24.204Z,93.65
2022-12-07T13:29:14.436Z,94.01
2022-12-07T13:31:44.687Z,94.21
2022-12-07T13:34:48.041Z,94.34
2022-12-07T13:37:27.127Z,94.31
2022-12-07T13:39:57.823Z,94.29
2022-12-07T13:42:36.404Z,94.77
2022-12-07T13:45:59.433Z,94.30
2022-12-07T13:48:46.445Z,93.55
2022-12-07T13:51:29.493Z,93.44
2022-12-07T13:54:10.919Z,93.61
2022-12-07T13:56:40.663Z,94.05
2022-12-07T13:59:22.689Z,94.02
2022-12-07T14:01:52.227Z,93.97
2022-12-07T14:04:34.126Z,94.10
2022-12-07T14:07:19.147Z,94.46
2022-12-07T14:10:03.142Z,94.77
2022-12-07T14:12:32.986Z,94.73
2022-12-07T14:15:03.694Z,94.49
2022-12-07T14:17:31.873Z,94.72
2022-12-07T14:20:06.254Z,94.88
2022-12-07T14:22:39.449Z,94.65
2022-12-07T14:25:14.536Z,94.06
2022-12-07T14:27:56.800Z,93.96
2022-12-07T14:30:34.583Z,93.70
2022-12-07T14:33:06.679Z,93.76
2022-12-07T14:35:34.662Z,92.87
2022-12-07T14:38:02.411Z,93.24
2022-12-07T14:40:31.365Z,92.86
2022-12-07T14:43:06.542Z,92.49
2022-12-07T14:45:34.380Z,93.27
2022-12-07T14:53:51.492Z,93.09
2022-12-07T14:56:23.466Z,94.01
2022-12-07T14:58:51.133Z,94.57
2022-12-07T15:01:19.280Z,94.82
2022-12-07T15:03:47.000Z,94.40
2022-12-07T15:06:17.929Z,93.92
2022-12-07T15:08:46.231Z,94.24
2022-12-07T15:11:18.270Z,94.25
2022-12-07T15:14:05.090Z,95.10
2022-12-07T15:16:52.523Z,95.02
2022-12-07T15:19:28.921Z,94.71
2022-12-07T15:21:59.427Z,94.32
2022-12-07T15:24:28.476Z,94.64
2022-12-07T15:26:56.196Z,94.36
2022-12-07T15:29:24.370Z,94.50
2022-12-07T15:31:56.556Z,94.59
2022-12-07T15:34:36.484Z,94.47
2022-12-07T15:37:09.638Z,93.70
2022-12-07T15:39:38.168Z,94.14
2022-12-07T15:42:06.134Z,93.91
2022-12-07T15:44:53.841Z,94.14
2022-12-07T15:47:21.835Z,94.12
2022-12-07T15:49:49.699Z,94.43
2022-12-07T15:52:17.768Z,93.80
2022-12-07T15:54:45.704Z,93.90
2022-12-07T15:57:13.569Z,93.32
2022-12-07T15:59:41.342Z,93.85
2022-12-07T16:02:11.446Z,93.82
2022-12-07T16:04:39.225Z,93.69
2022-12-07T16:07:07.296Z,93.27
2022-12-07T16:09:35.036Z,93.82
2022-12-07T16:12:02.621Z,93.18
2022-12-07T16:14:30.705Z,93.18
2022-12-07T16:16:58.405Z,93.62
2022-12-07T16:19:26.490Z,93.16
2022-12-07T16:21:54.273Z,93.39
2022-12-07T16:24:21.970Z,93.81
2022-12-07T16:26:50.677Z,93.73
2022-12-07T16:29:23.654Z,93.83
2022-12-07T16:31:52.824Z,94.20
2022-12-07T16:34:20.403Z,93.75
2022-12-07T16:37:03.738Z,93.99
2022-12-07T16:39:35.874Z,93.89
2022-12-07T16:42:04.469Z,93.76
2022-12-07T16:44:32.672Z,93.32
2022-12-07T16:47:02.121Z,93.10
2022-12-07T16:49:30.438Z,93.30
2022-12-07T16:54:46.587Z,93.63
2022-12-07T16:57:21.502Z,93.43
2022-12-07T16:59:52.412Z,93.25
2022-12-07T17:02:20.957Z,93.51
2022-12-07T17:04:48.662Z,93.01
2022-12-07T17:07:16.717Z,93.05
2022-12-07T17:09:44.626Z,93.30
2022-12-07T17:12:12.466Z,93.43
2022-12-07T17:14:58.701Z,93.77
2022-12-07T17:17:26.591Z,93.78
2022-12-07T17:19:56.995Z,93.79
2022-12-07T17:22:25.090Z,93.66
2022-12-07T17:24:53.040Z,93.58
2022-12-07T17:27:20.992Z,93.54
2022-12-07T17:29:48.919Z,93.08
2022-12-07T17:32:16.733Z,93.44
2022-12-07T17:34:44.805Z,93.33
2022-12-07T17:37:16.713Z,92.96
2022-12-07T17:39:45.623Z,93.36
2022-12-07T17:42:31.776Z,93.31
2022-12-07T17:45:01.490Z,92.61
2022-12-07T17:47:29.845Z,93.19
2022-12-07T17:50:01.787Z,93.37
2022-12-07T17:52:58.453Z,93.29
2022-12-07T17:55:26.712Z,92.91
2022-12-07T17:57:54.572Z,93.04
2022-12-07T18:00:22.550Z,93.41
2022-12-07T18:02:50.194Z,92.88
2022-12-07T18:05:18.091Z,92.75
2022-12-07T18:07:46.012Z,93.11
2022-12-07T18:10:13.765Z,93.17
2022-12-07T18:12:41.504Z,92.04
2022-12-07T18:15:10.029Z,93.40
2022-12-07T18:17:37.624Z,93.71
2022-12-07T18:20:07.027Z,93.25
2022-12-07T18:22:36.818Z,93.50
2022-12-07T18:25:05.309Z,93.61
2022-12-07T18:27:33.429Z,93.00
2022-12-07T18:30:01.217Z,92.84
2022-12-07T18:32:31.046Z,92.44
2022-12-07T18:34:59.152Z,92.90
2022-12-07T18:37:27.630Z,93.37
2022-12-07T18:39:57.170Z,93.07
2022-12-07T18:42:25.542Z,93.37
2022-12-07T18:44:53.216Z,92.62
2022-12-07T18:47:21.048Z,92.75
2022-12-07T18:49:48.865Z,92.83
2022-12-07T18:52:16.837Z,92.74
2022-12-07T18:54:44.455Z,92.15
2022-12-07T18:57:12.579Z,93.09
2022-12-07T18:59:46.555Z,92.95
2022-12-07T19:02:14.250Z,93.26
2022-12-07T19:04:42.034Z,93.02
2022-12-07T19:07:10.142Z,93.90
2022-12-07T19:09:37.905Z,94.12
2022-12-07T19:12:06.346Z,94.55
2022-12-07T19:14:37.575Z,94.93
2022-12-07T19:17:10.478Z,95.02
2022-12-07T19:19:44.863Z,94.64
2022-12-07T19:22:19.291Z,94.76
2022-12-07T19:24:52.294Z,95.30
2022-12-07T19:27:20.858Z,95.65
2022-12-07T19:29:49.393Z,95.59
2022-12-07T19:32:18.450Z,94.93
2022-12-07T19:34:48.231Z,94.93
2022-12-07T19:37:16.319Z,94.86
2022-12-07T19:39:44.420Z,94.87
2022-12-07T19:42:12.690Z,94.94
2022-12-07T19:44:40.457Z,95.08
2022-12-07T19:47:08.901Z,95.43
2022-12-07T19:49:39.158Z,95.69
2022-12-07T19:52:08.734Z,95.50
2022-12-07T19:54:37.066Z,95.65
2022-12-07T19:57:07.674Z,95.51
2022-12-07T19:59:35.626Z,95.56
2022-12-07T20:02:03.412Z,95.01
2022-12-07T20:04:35.943Z,94.89
2022-12-07T20:07:03.784Z,94.85
2022-12-07T20:09:31.430Z,95.00
2022-12-07T20:12:18.230Z,94.79
2022-12-07T20:14:45.964Z,94.43
2022-12-07T20:17:13.840Z,94.53
2022-12-07T20:19:41.695Z,93.41
2022-12-07T20:22:09.445Z,93.04
2022-12-07T20:24:37.645Z,93.32
2022-12-07T20:27:06.029Z,93.18
2022-12-07T20:29:34.235Z,93.38
2022-12-07T20:32:02.678Z,93.04
2022-12-07T20:34:30.524Z,92.85
2022-12-07T20:36:58.439Z,93.00
2022-12-07T20:39:26.312Z,93.04
2022-12-07T20:42:12.646Z,92.27
2022-12-07T20:44:40.833Z,92.19
2022-12-07T20:47:08.561Z,92.64
2022-12-07T20:49:36.655Z,91.85
2022-12-07T20:52:04.610Z,92.13
2022-12-07T20:54:32.542Z,92.37
2022-12-07T20:57:00.395Z,92.45
2022-12-07T20:59:28.196Z,92.44
2022-12-07T21:01:55.826Z,92.58
2022-12-07T21:04:23.695Z,92.72
2022-12-07T21:06:51.362Z,92.46
2022-12-07T21:09:20.633Z,93.20
2022-12-07T21:11:48.229Z,92.89
2022-12-07T21:14:16.144Z,93.16
2022-12-07T21:16:43.928Z,93.62
2022-12-07T21:19:11.646Z,93.48
2022-12-07T21:21:39.254Z,93.57
2022-12-07T21:27:16.378Z,94.12
2022-12-07T21:31:20.320Z,94.73
2022-12-07T21:35:23.454Z,94.86
2022-12-07T21:39:26.266Z,94.89
2022-12-07T21:43:29.266Z,94.94
2022-12-07T21:47:33.224Z,94.84
2022-12-07T21:51:36.108Z,95.10
2022-12-07T21:55:45.634Z,95.23
2022-12-07T21:59:48.264Z,95.12
2022-12-07T22:03:52.878Z,95.35
2022-12-07T22:07:55.697Z,95.14
2022-12-07T22:11:58.769Z,95.44
2022-12-07T22:16:01.692Z,95.38
2022-12-07T22:20:05.334Z,95.46
2022-12-07T22:24:08.316Z,95.60
2022-12-07T22:28:11.309Z,95.07
2022-12-07T22:32:46.587Z,95.17
2022-12-07T22:36:37.100Z,95.45
2022-12-07T22:40:39.735Z,95.73
2022-12-07T22:44:43.441Z,95.19
2022-12-07T22:48:46.771Z,95.37
2022-12-07T22:52:49.803Z,95.52
2022-12-07T22:56:52.805Z,95.09
2022-12-07T23:00:55.615Z,94.85
2022-12-07T23:04:58.575Z,95.26
2022-12-07T23:09:05.918Z,95.18
2022-12-07T23:13:33.330Z,94.85
2022-12-07T23:17:37.020Z,94.46
2022-12-07T23:21:40.716Z,94.46
2022-12-07T23:25:43.458Z,94.22
2022-12-07T23:29:46.397Z,94.32
2022-12-07T23:33:50.505Z,94.82
2022-12-07T23:37:53.204Z,94.11
2022-12-07T23:41:56.291Z,94.07
2022-12-07T23:46:00.031Z,93.76
2022-12-07T23:50:04.665Z,93.72
2022-12-07T23:54:07.663Z,93.58
2022-12-07T23:58:10.820Z,93.42
